createdAt,value
2023-02-26T00:01:25.735Z,100.00
2023-02-26T00:03:56.212Z,100.00
2023-02-26T00:06:24.603Z,100.00
2023-02-26T00:08:52.112Z,100.00
2023-02-26T00:11:19.996Z,100.00
2023-02-26T00:13:47.233Z,100.00
2023-02-26T00:16:26.738Z,100.00
2023-02-26T00:18:56.118Z,100.00
2023-02-26T00:21:24.181Z,100.00
2023-02-26T00:23:51.961Z,100.00
2023-02-26T00:26:19.585Z,100.00
2023-02-26T00:28:47.412Z,100.00
2023-02-26T00:31:16.379Z,100.00
2023-02-26T00:33:44.619Z,100.00
2023-02-26T00:36:30.471Z,100.00
2023-02-26T00:39:19.636Z,100.00
2023-02-26T00:41:47.827Z,100.00
2023-02-26T00:44:15.093Z,100.00
2023-02-26T00:46:49.253Z,100.00
2023-02-26T00:49:23.607Z,100.00
2023-02-26T00:51:57.813Z,100.00
2023-02-26T00:54:30.677Z,100.00
2023-02-26T00:56:58.852Z,100.00
2023-02-26T00:59:25.960Z,100.00
2023-02-26T01:01:53.316Z,100.00
2023-02-26T01:04:22.609Z,100.00
2023-02-26T01:06:55.523Z,100.00
2023-02-26T01:09:33.204Z,100.00
2023-02-26T01:12:05.162Z,100.00
2023-02-26T01:14:32.788Z,100.00
2023-02-26T01:17:11.693Z,100.00
2023-02-26T01:19:57.592Z,100.00
2023-02-26T01:22:47.912Z,100.00
2023-02-26T01:25:23.340Z,100.00
2023-02-26T01:27:50.723Z,100.00
2023-02-26T01:30:18.909Z,100.00
2023-02-26T01:32:53.468Z,100.00
2023-02-26T01:35:27.528Z,100.00
2023-02-26T01:38:15.352Z,100.00
2023-02-26T01:41:12.772Z,100.00
2023-02-26T01:43:50.990Z,100.00
2023-02-26T01:46:28.653Z,100.00
2023-02-26T01:48:58.294Z,100.00
2023-02-26T01:52:02.719Z,100.00
2023-02-26T01:54:32.796Z,100.00
2023-02-26T01:57:08.642Z,100.00
2023-02-26T01:59:39.209Z,100.00
2023-02-26T02:02:09.460Z,100.00
2023-02-26T02:04:37.559Z,100.00
2023-02-26T02:07:05.776Z,100.00
2023-02-26T02:09:32.845Z,100.00
2023-02-26T02:12:18.848Z,100.00
2023-02-26T02:15:12.300Z,100.00
2023-02-26T02:17:53.148Z,100.00
2023-02-26T02:20:49.221Z,100.00
2023-02-26T02:23:43.145Z,100.00
2023-02-26T02:26:28.772Z,100.00
2023-02-26T02:29:08.240Z,100.00
2023-02-26T02:31:57.288Z,100.00
2023-02-26T02:34:47.476Z,100.00
2023-02-26T02:37:20.186Z,100.00
2023-02-26T02:39:54.165Z,100.00
2023-02-26T02:42:34.901Z,100.00
2023-02-26T02:45:11.207Z,100.00
2023-02-26T02:47:42.519Z,100.00
2023-02-26T02:50:27.310Z,100.00
2023-02-26T02:52:59.911Z,100.00
2023-02-26T02:55:34.079Z,100.00
2023-02-26T02:58:11.044Z,100.00
2023-02-26T03:00:46.264Z,100.00
2023-02-26T03:03:24.072Z,100.00
2023-02-26T03:05:51.212Z,100.00
2023-02-26T03:08:23.498Z,100.00
2023-02-26T03:10:50.627Z,100.00
2023-02-26T03:13:22.749Z,100.00
2023-02-26T03:15:53.238Z,100.00
2023-02-26T03:18:45.032Z,100.00
2023-02-26T03:21:19.728Z,100.00
2023-02-26T03:24:00.107Z,100.00
2023-02-26T03:26:47.778Z,100.00
2023-02-26T03:29:18.228Z,100.00
2023-02-26T03:31:51.451Z,100.00
2023-02-26T03:34:26.942Z,100.00
2023-02-26T03:37:00.880Z,100.00
2023-02-26T03:39:38.093Z,100.00
2023-02-26T03:42:22.344Z,100.00
2023-02-26T03:45:09.796Z,100.00
2023-02-26T03:47:42.331Z,100.00
2023-02-26T03:50:21.654Z,100.00
2023-02-26T03:53:06.171Z,100.00
2023-02-26T03:56:02.177Z,99.57
2023-02-26T03:58:48.082Z,99.77
2023-02-26T04:02:03.957Z,99.43
2023-02-26T04:04:41.787Z,99.58
2023-02-26T04:07:12.226Z,99.50
2023-02-26T04:09:47.645Z,99.67
2023-02-26T04:12:15.129Z,99.24
2023-02-26T04:14:46.084Z,98.87
2023-02-26T04:17:13.336Z,99.03
2023-02-26T04:19:40.602Z,99.05
2023-02-26T04:22:07.723Z,99.16
2023-02-26T04:24:35.252Z,98.84
2023-02-26T04:27:02.605Z,99.10
2023-02-26T04:29:30.297Z,98.96
2023-02-26T04:31:57.546Z,98.89
2023-02-26T04:34:24.785Z,98.85
2023-02-26T04:36:52.828Z,98.89
2023-02-26T04:39:20.310Z,98.55
2023-02-26T04:41:47.272Z,97.80
2023-02-26T04:44:14.704Z,98.03
2023-02-26T04:46:42.457Z,98.13
2023-02-26T04:49:09.825Z,98.23
2023-02-26T04:51:37.073Z,98.35
2023-02-26T04:54:04.439Z,98.63
2023-02-26T04:56:33.044Z,98.14
2023-02-26T04:59:00.896Z,97.92
2023-02-26T05:01:30.120Z,97.99
2023-02-26T05:03:58.894Z,97.75
2023-02-26T05:06:26.152Z,97.84
2023-02-26T05:08:53.262Z,96.99
2023-02-26T05:11:20.252Z,97.19
2023-02-26T05:13:47.404Z,97.25
2023-02-26T05:16:14.471Z,96.57
2023-02-26T05:18:42.478Z,96.97
2023-02-26T05:21:09.576Z,96.80
2023-02-26T05:23:37.690Z,96.93
2023-02-26T05:26:04.831Z,96.88
2023-02-26T05:28:33.245Z,97.21
2023-02-26T05:31:01.128Z,97.19
2023-02-26T05:33:28.177Z,97.00
2023-02-26T05:35:56.925Z,97.11
2023-02-26T05:38:23.891Z,97.33
2023-02-26T05:40:50.807Z,97.51
2023-02-26T05:43:17.778Z,97.83
2023-02-26T05:45:46.497Z,97.70
2023-02-26T05:48:13.456Z,97.45
2023-02-26T05:50:40.521Z,97.53
2023-02-26T05:53:08.178Z,97.42
2023-02-26T05:55:35.124Z,97.64
2023-02-26T05:58:02.140Z,97.59
2023-02-26T06:00:29.364Z,97.87
2023-02-26T06:02:56.668Z,97.65
2023-02-26T06:05:23.773Z,97.65
2023-02-26T06:07:50.896Z,97.65
2023-02-26T06:10:17.978Z,97.66
2023-02-26T06:12:44.969Z,97.84
2023-02-26T06:15:12.077Z,97.92
2023-02-26T06:17:40.771Z,97.81
2023-02-26T06:20:09.028Z,97.74
2023-02-26T06:22:36.055Z,97.98
2023-02-26T06:25:03.157Z,97.94
2023-02-26T06:27:30.205Z,98.03
2023-02-26T06:29:57.162Z,98.11
2023-02-26T06:32:24.182Z,98.27
2023-02-26T06:34:51.183Z,98.14
2023-02-26T06:37:18.105Z,97.79
2023-02-26T06:39:45.534Z,97.39
2023-02-26T06:42:12.579Z,97.37
2023-02-26T06:44:39.543Z,97.41
2023-02-26T06:47:07.246Z,97.43
2023-02-26T06:49:34.231Z,97.67
2023-02-26T06:52:01.217Z,97.47
2023-02-26T06:54:28.225Z,96.68
2023-02-26T06:56:57.228Z,96.64
2023-02-26T06:59:24.218Z,96.87
2023-02-26T07:01:51.174Z,96.08
2023-02-26T07:04:20.526Z,95.88
2023-02-26T07:06:47.644Z,95.89
2023-02-26T07:09:14.585Z,95.90
2023-02-26T07:11:41.613Z,95.61
2023-02-26T07:14:08.568Z,95.30
2023-02-26T07:16:35.611Z,95.23
2023-02-26T07:19:02.681Z,95.55
2023-02-26T07:21:29.717Z,94.79
2023-02-26T07:23:56.589Z,94.80
2023-02-26T07:26:23.975Z,94.24
2023-02-26T07:28:51.263Z,93.86
2023-02-26T07:31:18.405Z,93.58
2023-02-26T07:33:45.535Z,94.34
2023-02-26T07:36:12.584Z,93.41
2023-02-26T07:38:39.605Z,92.72
2023-02-26T07:41:06.641Z,93.33
2023-02-26T07:43:33.594Z,93.26
2023-02-26T07:46:00.460Z,93.48
2023-02-26T07:48:27.451Z,92.55
2023-02-26T07:50:54.967Z,91.02
2023-02-26T07:53:22.036Z,91.99
2023-02-26T07:55:49.188Z,91.84
2023-02-26T07:58:16.545Z,90.92
2023-02-26T08:00:43.925Z,92.31
2023-02-26T08:03:10.922Z,91.19
2023-02-26T08:05:37.877Z,91.33
2023-02-26T08:08:04.842Z,90.47
2023-02-26T08:10:32.272Z,90.48
2023-02-26T08:12:59.244Z,90.86
2023-02-26T08:15:26.294Z,91.02
2023-02-26T08:17:53.957Z,90.32
2023-02-26T08:20:20.956Z,91.46
2023-02-26T08:22:49.511Z,91.58
2023-02-26T08:25:16.554Z,91.09
2023-02-26T08:27:43.493Z,90.78
2023-02-26T08:30:11.085Z,90.14
2023-02-26T08:32:39.350Z,91.12
2023-02-26T08:35:06.508Z,90.13
2023-02-26T08:37:33.490Z,88.00
2023-02-26T08:40:00.439Z,87.99
2023-02-26T08:42:27.553Z,88.80
2023-02-26T08:44:54.399Z,89.89
2023-02-26T08:47:28.438Z,88.92
2023-02-26T08:49:56.495Z,88.53
2023-02-26T08:52:36.190Z,86.49
2023-02-26T08:55:03.222Z,87.45
2023-02-26T08:57:30.256Z,86.80
2023-02-26T08:59:57.164Z,83.79
2023-02-26T09:02:24.123Z,85.34
2023-02-26T09:04:51.071Z,86.13
2023-02-26T09:07:18.060Z,86.45
2023-02-26T09:09:45.146Z,87.49
2023-02-26T09:12:12.269Z,88.93
2023-02-26T09:14:39.268Z,89.98
2023-02-26T09:17:06.392Z,90.31
2023-02-26T09:19:33.689Z,90.59
2023-02-26T09:22:00.819Z,91.17
2023-02-26T09:24:29.657Z,90.99
2023-02-26T09:26:56.965Z,91.02
2023-02-26T09:29:24.101Z,91.03
2023-02-26T09:31:51.637Z,92.83
2023-02-26T09:34:19.978Z,92.46
2023-02-26T09:36:47.369Z,92.85
2023-02-26T09:39:17.483Z,93.18
2023-02-26T09:41:51.572Z,91.68
2023-02-26T09:44:25.132Z,91.05
2023-02-26T09:47:13.702Z,90.07
2023-02-26T09:49:50.400Z,89.81
2023-02-26T09:52:31.623Z,91.05
2023-02-26T09:55:04.696Z,89.89
2023-02-26T09:57:35.247Z,88.91
2023-02-26T10:00:17.286Z,86.24
2023-02-26T10:03:44.311Z,85.51
2023-02-26T10:06:26.431Z,86.37
2023-02-26T10:09:08.799Z,87.70
2023-02-26T10:11:57.663Z,87.80
2023-02-26T10:15:00.054Z,85.51
2023-02-26T10:17:41.265Z,86.91
2023-02-26T10:20:20.613Z,87.43
2023-02-26T10:22:58.692Z,86.11
2023-02-26T10:25:43.747Z,83.45
2023-02-26T10:28:13.702Z,84.56
2023-02-26T10:30:43.524Z,84.71
2023-02-26T10:33:18.159Z,83.19
2023-02-26T10:35:54.023Z,83.46
2023-02-26T10:38:25.559Z,82.88
2023-02-26T10:40:55.624Z,80.68
2023-02-26T10:43:29.705Z,79.49
2023-02-26T10:46:06.118Z,79.03
2023-02-26T10:49:21.457Z,78.93
2023-02-26T10:51:52.119Z,80.39
2023-02-26T10:54:36.829Z,78.18
2023-02-26T10:57:04.060Z,77.78
2023-02-26T10:59:31.425Z,79.60
2023-02-26T11:01:59.465Z,80.02
2023-02-26T11:04:27.749Z,80.15
2023-02-26T11:06:57.418Z,80.19
2023-02-26T11:09:28.563Z,78.61
2023-02-26T11:12:01.182Z,79.22
2023-02-26T11:14:30.770Z,79.13
2023-02-26T11:17:01.375Z,79.81
2023-02-26T11:19:32.566Z,79.59
2023-02-26T11:22:03.494Z,77.53
2023-02-26T11:24:35.880Z,78.96
2023-02-26T11:27:06.057Z,77.85
2023-02-26T11:29:43.130Z,77.48
2023-02-26T11:32:18.303Z,77.81
2023-02-26T11:34:49.165Z,77.31
2023-02-26T11:37:27.513Z,77.51
2023-02-26T11:39:59.966Z,77.46
2023-02-26T11:42:28.767Z,77.60
2023-02-26T11:44:59.176Z,77.91
2023-02-26T11:47:30.140Z,78.00
2023-02-26T11:50:04.961Z,79.38
2023-02-26T11:52:31.796Z,79.26
2023-02-26T11:55:05.853Z,79.45
2023-02-26T11:57:33.160Z,79.21
2023-02-26T12:00:16.323Z,79.80
2023-02-26T12:02:43.283Z,80.86
2023-02-26T12:05:23.133Z,80.23
2023-02-26T12:07:50.098Z,78.72
2023-02-26T12:10:23.367Z,79.58
2023-02-26T12:13:16.845Z,80.32
2023-02-26T12:16:10.112Z,80.71
2023-02-26T12:18:54.525Z,80.75
2023-02-26T12:21:56.162Z,79.74
2023-02-26T12:25:01.648Z,78.35
2023-02-26T12:27:55.241Z,77.26
2023-02-26T12:30:46.528Z,78.24
2023-02-26T12:33:22.850Z,78.57
2023-02-26T12:35:52.506Z,79.19
2023-02-26T12:38:34.484Z,80.29
2023-02-26T12:41:15.796Z,80.68
2023-02-26T12:44:07.594Z,81.84
2023-02-26T12:46:50.191Z,81.15
2023-02-26T12:49:41.221Z,81.26
2023-02-26T12:52:18.299Z,82.35
2023-02-26T12:55:08.672Z,82.64
2023-02-26T12:57:55.804Z,82.50
2023-02-26T13:00:35.366Z,83.18
2023-02-26T13:03:23.833Z,83.84
2023-02-26T13:06:12.798Z,83.86
2023-02-26T13:08:58.993Z,84.63
2023-02-26T13:11:55.741Z,84.78
2023-02-26T13:15:07.391Z,84.22
2023-02-26T13:17:52.111Z,83.75
2023-02-26T13:20:25.701Z,82.39
2023-02-26T13:23:10.041Z,82.29
2023-02-26T13:25:51.201Z,82.82
2023-02-26T13:28:24.210Z,83.07
2023-02-26T13:30:56.154Z,83.07
2023-02-26T13:33:28.287Z,82.83
2023-02-26T13:35:56.948Z,82.15
2023-02-26T13:38:44.546Z,82.26
2023-02-26T13:41:33.280Z,81.73
2023-02-26T13:44:29.652Z,81.97
2023-02-26T13:47:17.091Z,81.92
2023-02-26T13:50:12.582Z,81.18
2023-02-26T13:53:09.433Z,80.45
2023-02-26T13:55:42.849Z,80.17
2023-02-26T13:58:22.014Z,80.56
2023-02-26T14:01:07.990Z,81.51
2023-02-26T14:03:49.711Z,81.66
2023-02-26T14:06:23.625Z,81.25
2023-02-26T14:08:56.814Z,81.06
2023-02-26T14:11:46.294Z,81.39
2023-02-26T14:14:37.063Z,80.83
2023-02-26T14:17:07.452Z,80.84
2023-02-26T14:19:41.877Z,80.46
2023-02-26T14:22:08.785Z,81.45
2023-02-26T14:24:44.862Z,79.47
2023-02-26T14:27:11.824Z,79.89
2023-02-26T14:30:04.129Z,80.92
2023-02-26T14:32:53.252Z,80.70
2023-02-26T14:35:27.383Z,80.35
2023-02-26T14:38:25.999Z,79.54
2023-02-26T14:41:05.271Z,80.89
2023-02-26T14:43:52.280Z,81.08
2023-02-26T14:46:36.176Z,80.25
2023-02-26T14:49:07.140Z,80.35
2023-02-26T14:52:07.621Z,78.61
2023-02-26T14:55:15.202Z,78.10
2023-02-26T14:57:58.858Z,78.36
2023-02-26T15:00:35.706Z,78.66
2023-02-26T15:03:27.717Z,79.17
2023-02-26T15:06:18.359Z,79.05
2023-02-26T15:09:01.464Z,80.16
2023-02-26T15:12:00.987Z,80.23
2023-02-26T15:14:56.520Z,79.08
2023-02-26T15:17:54.903Z,79.01
2023-02-26T15:20:36.405Z,78.82
2023-02-26T15:23:46.891Z,79.87
2023-02-26T15:26:38.947Z,80.31
2023-02-26T15:29:09.939Z,80.61
2023-02-26T15:31:52.458Z,80.68
2023-02-26T15:34:22.262Z,80.95
2023-02-26T15:36:53.409Z,81.37
2023-02-26T15:39:23.957Z,80.54
2023-02-26T15:41:54.298Z,80.39
2023-02-26T15:44:31.463Z,80.75
2023-02-26T15:47:03.885Z,81.32
2023-02-26T15:49:39.760Z,81.13
2023-02-26T15:52:11.846Z,80.92
2023-02-26T15:54:45.950Z,80.38
2023-02-26T15:57:14.742Z,79.41
2023-02-26T16:00:15.717Z,78.69
2023-02-26T16:02:44.961Z,78.75
2023-02-26T16:05:15.944Z,79.04
2023-02-26T16:07:42.910Z,78.53
2023-02-26T16:10:28.143Z,79.33
2023-02-26T16:12:55.305Z,79.95
2023-02-26T16:15:31.235Z,79.29
2023-02-26T16:18:01.378Z,79.22
2023-02-26T16:20:36.016Z,78.55
2023-02-26T16:23:10.092Z,78.64
2023-02-26T16:25:43.474Z,77.22
2023-02-26T16:28:23.004Z,77.26
2023-02-26T16:30:54.410Z,76.85
2023-02-26T16:33:24.470Z,76.98
2023-02-26T16:35:56.980Z,76.91
2023-02-26T16:38:30.260Z,76.66
2023-02-26T16:41:05.171Z,76.57
2023-02-26T16:43:34.953Z,77.68
2023-02-26T16:46:04.832Z,78.26
2023-02-26T16:48:46.230Z,78.12
2023-02-26T16:51:19.696Z,78.72
2023-02-26T16:53:48.996Z,78.80
2023-02-26T16:56:19.077Z,78.59
2023-02-26T16:59:05.635Z,78.81
2023-02-26T17:01:39.772Z,79.19
2023-02-26T17:04:09.115Z,79.34
2023-02-26T17:06:39.433Z,78.51
2023-02-26T17:09:09.945Z,77.68
2023-02-26T17:11:44.415Z,78.64
2023-02-26T17:14:18.620Z,77.86
2023-02-26T17:16:46.591Z,76.52
2023-02-26T17:19:13.915Z,77.21
2023-02-26T17:21:59.716Z,77.29
2023-02-26T17:24:33.675Z,76.34
2023-02-26T17:27:04.096Z,76.56
2023-02-26T17:29:42.087Z,75.99
2023-02-26T17:32:17.729Z,76.00
2023-02-26T17:34:45.008Z,76.58
2023-02-26T17:37:13.132Z,76.92
2023-02-26T17:39:43.543Z,76.47
2023-02-26T17:42:12.916Z,76.65
2023-02-26T17:44:39.861Z,77.88
2023-02-26T17:47:15.811Z,77.62
2023-02-26T17:49:44.785Z,77.92
2023-02-26T17:52:13.294Z,78.06
2023-02-26T17:54:45.520Z,78.50
2023-02-26T17:57:22.754Z,78.59
2023-02-26T17:59:52.381Z,78.99
2023-02-26T18:02:26.765Z,79.59
2023-02-26T18:05:00.637Z,79.51
2023-02-26T18:07:29.787Z,79.75
2023-02-26T18:09:59.258Z,80.06
2023-02-26T18:12:32.098Z,80.11
2023-02-26T18:15:02.272Z,80.63
2023-02-26T18:17:34.296Z,80.67
2023-02-26T18:20:09.712Z,80.70
2023-02-26T18:22:38.447Z,80.94
2023-02-26T18:25:08.158Z,80.92
2023-02-26T18:27:39.534Z,81.03
2023-02-26T18:30:23.976Z,81.17
2023-02-26T18:32:52.465Z,81.55
2023-02-26T18:35:22.498Z,81.77
2023-02-26T18:37:53.201Z,81.66
2023-02-26T18:40:23.352Z,81.78
2023-02-26T18:42:50.904Z,81.63
2023-02-26T18:45:19.292Z,81.80
2023-02-26T18:47:47.609Z,81.96
2023-02-26T18:50:16.885Z,81.67
2023-02-26T18:52:44.284Z,81.82
2023-02-26T18:55:12.541Z,82.42
2023-02-26T18:57:41.940Z,82.35
2023-02-26T19:00:16.758Z,82.29
2023-02-26T19:02:46.484Z,82.64
2023-02-26T19:05:15.795Z,82.94
2023-02-26T19:07:43.923Z,83.10
2023-02-26T19:10:14.230Z,83.06
2023-02-26T19:12:42.536Z,83.10
2023-02-26T19:15:12.198Z,83.30
2023-02-26T19:17:41.953Z,83.41
2023-02-26T19:20:10.156Z,83.20
2023-02-26T19:22:37.507Z,82.26
2023-02-26T19:25:06.167Z,83.28
2023-02-26T19:27:34.409Z,83.40
2023-02-26T19:30:02.909Z,83.66
2023-02-26T19:32:32.089Z,83.81
2023-02-26T19:35:01.637Z,83.70
2023-02-26T19:37:28.709Z,83.63
2023-02-26T19:39:58.245Z,83.81
2023-02-26T19:42:28.308Z,83.94
2023-02-26T19:44:55.539Z,83.77
2023-02-26T19:47:22.943Z,83.90
2023-02-26T19:49:50.504Z,84.12
2023-02-26T19:52:19.425Z,84.31
2023-02-26T19:54:46.454Z,84.22
2023-02-26T19:57:13.515Z,84.56
2023-02-26T19:59:41.878Z,84.83
2023-02-26T20:02:09.270Z,85.17
2023-02-26T20:04:38.060Z,85.41
2023-02-26T20:07:06.869Z,85.38
2023-02-26T20:09:34.849Z,85.40
2023-02-26T20:12:05.861Z,85.72
2023-02-26T20:14:35.422Z,85.65
2023-02-26T20:17:02.615Z,85.71
2023-02-26T20:19:29.716Z,85.99
2023-02-26T20:21:58.027Z,86.19
2023-02-26T20:24:25.905Z,86.24
2023-02-26T20:26:53.685Z,86.54
2023-02-26T20:29:23.138Z,86.87
2023-02-26T20:31:50.477Z,87.12
2023-02-26T20:34:19.385Z,87.28
2023-02-26T20:36:49.332Z,87.49
2023-02-26T20:39:20.419Z,87.70
2023-02-26T20:41:47.569Z,87.84
2023-02-26T20:44:14.886Z,87.78
2023-02-26T20:46:42.295Z,87.95
2023-02-26T20:49:10.990Z,87.90
2023-02-26T20:51:42.271Z,88.09
2023-02-26T20:54:14.058Z,88.23
2023-02-26T20:56:41.200Z,88.43
2023-02-26T20:59:09.018Z,88.52
2023-02-26T21:01:36.171Z,88.49
2023-02-26T21:04:06.226Z,88.55
2023-02-26T21:06:33.455Z,88.74
2023-02-26T21:09:02.503Z,88.69
2023-02-26T21:11:30.674Z,88.85
2023-02-26T21:13:58.878Z,88.80
2023-02-26T21:16:29.673Z,88.77
2023-02-26T21:18:59.586Z,88.84
2023-02-26T21:21:27.575Z,88.70
2023-02-26T21:23:55.016Z,88.76
2023-02-26T21:26:23.181Z,88.96
2023-02-26T21:28:50.229Z,88.97
2023-02-26T21:31:20.153Z,88.77
2023-02-26T21:33:48.361Z,88.81
2023-02-26T21:36:16.309Z,88.57
2023-02-26T21:38:43.648Z,88.68
2023-02-26T21:41:10.763Z,88.85
2023-02-26T21:43:38.550Z,88.89
2023-02-26T21:46:05.779Z,88.79
2023-02-26T21:48:32.908Z,88.99
2023-02-26T21:51:00.510Z,88.79
2023-02-26T21:53:27.931Z,88.91
2023-02-26T21:55:56.209Z,88.88
2023-02-26T21:58:24.951Z,88.85
2023-02-26T22:00:51.962Z,88.97
2023-02-26T22:03:19.412Z,89.02
2023-02-26T22:05:50.367Z,89.13
2023-02-26T22:08:18.309Z,89.37
2023-02-26T22:10:45.343Z,89.32
2023-02-26T22:13:13.426Z,89.47
2023-02-26T22:15:41.385Z,89.39
2023-02-26T22:18:08.470Z,89.63
2023-02-26T22:20:35.627Z,89.59
2023-02-26T22:23:03.954Z,89.45
2023-02-26T22:25:31.665Z,89.31
2023-02-26T22:27:58.812Z,89.49
2023-02-26T22:30:25.990Z,89.75
2023-02-26T22:32:52.960Z,89.52
2023-02-26T22:35:19.976Z,89.75
2023-02-26T22:37:46.970Z,89.82
2023-02-26T22:40:14.329Z,89.87
2023-02-26T22:42:43.021Z,89.94
2023-02-26T22:45:16.416Z,90.01
2023-02-26T22:47:47.743Z,89.87
2023-02-26T22:50:15.816Z,89.91
2023-02-26T22:52:43.258Z,89.83
2023-02-26T22:55:11.375Z,89.58
2023-02-26T22:57:38.793Z,89.58
2023-02-26T23:00:10.804Z,89.47
2023-02-26T23:02:38.367Z,89.92
2023-02-26T23:05:08.633Z,89.94
2023-02-26T23:07:36.822Z,89.96
2023-02-26T23:10:06.066Z,90.21
2023-02-26T23:12:33.208Z,90.23
2023-02-26T23:15:00.518Z,89.99
2023-02-26T23:17:27.592Z,89.94
2023-02-26T23:19:54.637Z,90.06
2023-02-26T23:22:22.065Z,90.15
2023-02-26T23:24:49.230Z,90.19
2023-02-26T23:27:16.699Z,90.54
2023-02-26T23:29:45.068Z,90.62
2023-02-26T23:32:13.295Z,90.53
2023-02-26T23:34:40.554Z,90.47
2023-02-26T23:37:07.577Z,90.48
2023-02-26T23:39:34.620Z,90.27
2023-02-26T23:42:01.482Z,90.20
2023-02-26T23:44:31.390Z,90.36
2023-02-26T23:46:58.451Z,90.59
2023-02-26T23:49:25.425Z,90.67
2023-02-26T23:51:52.430Z,90.52
2023-02-26T23:54:19.381Z,90.33
2023-02-26T23:56:47.422Z,90.29
2023-02-26T23:59:14.492Z,90.42
